createdAt,value
2022-10-14T00:00:52.104Z,10.60
2022-10-14T00:03:22.992Z,10.90
2022-10-14T00:05:53.874Z,11.53
2022-10-14T00:08:25.846Z,10.73
2022-10-14T00:10:56.738Z,11.37
2022-10-14T00:13:27.638Z,10.80
2022-10-14T00:15:58.519Z,11.63
2022-10-14T00:18:29.930Z,11.50
2022-10-14T00:21:02.822Z,12.73
2022-10-14T00:23:33.729Z,11.37
2022-10-14T00:26:05.038Z,11.93
2022-10-14T00:28:36.079Z,11.00
2022-10-14T00:31:07.018Z,12.20
2022-10-14T00:33:37.948Z,11.50
2022-10-14T00:36:12.619Z,11.67
2022-10-14T00:38:45.369Z,11.40
2022-10-14T00:41:23.675Z,10.90
2022-10-14T00:43:57.179Z,11.47
2022-10-14T00:46:33.047Z,11.50
2022-10-14T00:49:15.660Z,11.97
2022-10-14T00:51:56.931Z,12.20
2022-10-14T00:54:46.530Z,10.83
2022-10-14T00:57:19.085Z,11.77
2022-10-14T00:59:50.969Z,10.83
2022-10-14T01:02:21.867Z,12.10
2022-10-14T01:04:52.981Z,10.90
2022-10-14T01:08:09.499Z,11.20
2022-10-14T01:11:21.613Z,10.77
2022-10-14T01:14:26.321Z,10.80
2022-10-14T01:17:19.297Z,11.03
2022-10-14T01:20:28.238Z,11.67
2022-10-14T01:23:27.279Z,12.10
2022-10-14T01:26:43.454Z,11.50
2022-10-14T01:29:40.152Z,11.00
2022-10-14T01:32:17.424Z,11.90
2022-10-14T01:35:03.171Z,12.00
2022-10-14T01:37:37.557Z,11.53
2022-10-14T01:40:16.002Z,10.50
2022-10-14T01:42:48.458Z,10.63
2022-10-14T01:45:22.255Z,11.77
2022-10-14T01:47:54.957Z,11.90
2022-10-14T01:50:28.543Z,10.97
2022-10-14T01:53:06.344Z,10.73
2022-10-14T01:55:43.752Z,10.10
2022-10-14T01:58:17.126Z,10.90
2022-10-14T02:00:48.106Z,10.40
2022-10-14T02:03:19.226Z,11.03
2022-10-14T02:06:05.484Z,11.17
2022-10-14T02:08:55.590Z,10.70
2022-10-14T02:11:28.191Z,11.53
2022-10-14T02:14:40.257Z,10.90
2022-10-14T02:17:38.985Z,10.50
2022-10-14T02:20:24.085Z,9.67
2022-10-14T02:23:19.156Z,9.57
2022-10-14T02:25:51.565Z,8.00
2022-10-14T02:28:27.207Z,7.83
2022-10-14T02:31:04.518Z,7.03
2022-10-14T02:33:41.170Z,7.10
2022-10-14T02:36:16.905Z,6.90
2022-10-14T02:38:49.715Z,7.27
2022-10-14T02:41:25.024Z,6.60
2022-10-14T02:43:56.040Z,6.70
2022-10-14T02:46:29.007Z,6.13
2022-10-14T02:48:59.947Z,6.43
2022-10-14T02:51:30.845Z,5.40
2022-10-14T02:54:02.435Z,5.73
2022-10-14T02:56:33.493Z,6.33
2022-10-14T02:59:04.405Z,5.43
2022-10-14T03:01:37.737Z,6.07
2022-10-14T03:04:08.998Z,5.70
2022-10-14T03:06:39.912Z,6.23
2022-10-14T03:09:11.352Z,6.20
2022-10-14T03:11:42.228Z,6.50
2022-10-14T03:14:13.207Z,6.17
2022-10-14T03:16:44.151Z,6.40
2022-10-14T03:19:15.111Z,6.13
2022-10-14T03:21:46.002Z,6.20
2022-10-14T03:24:17.090Z,5.37
2022-10-14T03:26:47.997Z,6.43
2022-10-14T03:29:18.875Z,6.33
2022-10-14T03:31:49.794Z,5.60
2022-10-14T03:34:20.932Z,5.90
2022-10-14T03:36:51.815Z,6.00
2022-10-14T03:39:22.700Z,5.83
2022-10-14T03:41:53.652Z,6.37
2022-10-14T03:44:24.631Z,5.70
2022-10-14T03:46:55.537Z,6.20
2022-10-14T03:49:26.462Z,6.20
2022-10-14T03:51:57.355Z,6.40
2022-10-14T03:54:28.204Z,6.43
2022-10-14T03:56:59.090Z,6.10
2022-10-14T03:59:30.018Z,6.37
2022-10-14T04:02:00.975Z,6.60
2022-10-14T04:04:31.892Z,6.57
2022-10-14T04:07:02.851Z,6.40
2022-10-14T04:09:33.722Z,6.40
2022-10-14T04:12:05.634Z,6.30
2022-10-14T04:14:37.383Z,6.50
2022-10-14T04:17:08.247Z,6.23
2022-10-14T04:19:39.139Z,6.90
2022-10-14T04:22:10.460Z,6.37
2022-10-14T04:24:41.313Z,6.70
2022-10-14T04:27:12.259Z,6.97
2022-10-14T04:29:43.280Z,6.53
2022-10-14T04:32:14.160Z,6.63
2022-10-14T04:34:45.209Z,6.93
2022-10-14T04:37:16.382Z,6.40
2022-10-14T04:39:47.325Z,6.87
2022-10-14T04:42:18.329Z,6.80
2022-10-14T04:44:49.291Z,6.73
2022-10-14T04:47:20.225Z,9.03
2022-10-14T04:49:51.092Z,8.80
2022-10-14T04:52:22.364Z,11.13
2022-10-14T04:54:53.433Z,9.20
2022-10-14T04:57:24.407Z,10.37
2022-10-14T04:59:55.286Z,10.20
2022-10-14T05:02:26.191Z,10.40
2022-10-14T05:04:57.430Z,11.00
2022-10-14T05:07:28.496Z,9.23
2022-10-14T05:09:59.421Z,10.37
2022-10-14T05:12:31.353Z,10.50
2022-10-14T05:15:03.243Z,11.27
2022-10-14T05:17:34.536Z,11.60
2022-10-14T05:20:07.009Z,10.77
2022-10-14T05:22:38.653Z,11.20
2022-10-14T05:25:09.793Z,11.43
2022-10-14T05:27:40.899Z,10.70
2022-10-14T05:30:12.506Z,10.40
2022-10-14T05:32:43.403Z,11.20
2022-10-14T05:35:14.444Z,12.27
2022-10-14T05:37:45.328Z,10.07
2022-10-14T05:40:16.363Z,12.17
2022-10-14T05:42:47.260Z,10.90
2022-10-14T05:45:18.594Z,11.87
2022-10-14T05:47:49.517Z,11.87
2022-10-14T05:50:20.495Z,11.77
2022-10-14T05:52:51.386Z,11.60
2022-10-14T05:55:22.270Z,12.90
2022-10-14T05:57:56.949Z,12.80
2022-10-14T06:00:28.069Z,13.80
2022-10-14T06:02:59.147Z,14.03
2022-10-14T06:05:30.084Z,11.40
2022-10-14T06:08:00.985Z,13.47
2022-10-14T06:10:31.946Z,13.60
2022-10-14T06:13:03.005Z,13.20
2022-10-14T06:15:36.304Z,12.33
2022-10-14T06:18:07.223Z,14.10
2022-10-14T06:20:38.108Z,13.77
2022-10-14T06:23:09.027Z,16.20
2022-10-14T06:25:40.286Z,13.20
2022-10-14T06:28:11.250Z,15.23
2022-10-14T06:30:42.203Z,13.43
2022-10-14T06:33:13.349Z,15.00
2022-10-14T06:35:44.253Z,14.30
2022-10-14T06:38:15.680Z,12.50
2022-10-14T06:40:46.583Z,14.23
2022-10-14T06:43:18.127Z,14.50
2022-10-14T06:45:49.632Z,13.60
2022-10-14T06:48:20.517Z,13.80
2022-10-14T06:50:51.708Z,13.27
2022-10-14T06:53:22.605Z,14.37
2022-10-14T06:56:06.053Z,14.33
2022-10-14T06:58:36.912Z,13.27
2022-10-14T07:01:09.263Z,13.93
2022-10-14T07:03:40.114Z,13.90
2022-10-14T07:06:11.083Z,13.40
2022-10-14T07:08:42.791Z,12.80
2022-10-14T07:11:13.701Z,12.27
2022-10-14T07:13:44.720Z,12.77
2022-10-14T07:16:15.756Z,12.77
2022-10-14T07:18:46.732Z,12.67
2022-10-14T07:21:17.641Z,11.87
2022-10-14T07:23:48.565Z,11.60
2022-10-14T07:26:19.469Z,12.07
2022-10-14T07:28:50.522Z,11.63
2022-10-14T07:31:21.520Z,11.90
2022-10-14T07:33:52.614Z,11.30
2022-10-14T07:36:23.689Z,10.13
2022-10-14T07:38:54.723Z,10.50
2022-10-14T07:41:26.094Z,10.80
2022-10-14T07:44:05.903Z,10.07
2022-10-14T07:46:40.292Z,9.37
2022-10-14T07:49:20.417Z,10.07
2022-10-14T07:51:51.811Z,9.20
2022-10-14T07:54:25.614Z,10.20
2022-10-14T07:56:57.992Z,9.77
2022-10-14T07:59:29.051Z,8.67
2022-10-14T08:02:00.027Z,8.77
2022-10-14T08:04:31.035Z,8.90
2022-10-14T08:07:03.943Z,8.50
2022-10-14T08:09:36.723Z,8.33
2022-10-14T08:12:08.196Z,7.87
2022-10-14T08:14:39.195Z,9.53
2022-10-14T08:17:10.103Z,8.30
2022-10-14T08:19:41.032Z,8.60
2022-10-14T08:22:11.896Z,8.63
2022-10-14T08:24:42.766Z,8.50
2022-10-14T08:27:13.724Z,7.90
2022-10-14T08:29:44.688Z,8.40
2022-10-14T08:32:15.794Z,8.13
2022-10-14T08:34:46.681Z,9.40
2022-10-14T08:37:17.573Z,8.47
2022-10-14T08:39:48.543Z,7.07
2022-10-14T08:42:39.133Z,8.43
2022-10-14T08:45:25.327Z,7.80
2022-10-14T08:47:58.537Z,7.60
2022-10-14T08:50:47.001Z,8.83
2022-10-14T08:53:23.142Z,8.33
2022-10-14T08:56:00.489Z,8.40
2022-10-14T08:58:40.271Z,7.70
2022-10-14T09:01:32.371Z,7.93
2022-10-14T09:04:06.966Z,7.80
2022-10-14T09:06:42.590Z,8.20
2022-10-14T09:09:28.445Z,7.43
2022-10-14T09:12:04.058Z,8.50
2022-10-14T09:14:39.759Z,7.97
2022-10-14T09:17:25.951Z,8.20
2022-10-14T09:20:24.826Z,7.17
2022-10-14T09:23:04.346Z,7.57
2022-10-14T09:25:37.591Z,8.17
2022-10-14T09:28:09.738Z,7.20
2022-10-14T09:30:40.671Z,7.83
2022-10-14T09:33:21.769Z,8.20
2022-10-14T09:35:52.839Z,8.33
2022-10-14T09:38:25.721Z,7.93
2022-10-14T09:41:00.426Z,7.30
2022-10-14T09:43:31.382Z,8.67
2022-10-14T09:46:08.124Z,6.60
2022-10-14T09:48:50.003Z,7.50
2022-10-14T09:51:31.505Z,8.23
2022-10-14T09:54:04.756Z,7.37
2022-10-14T09:56:41.829Z,7.90
2022-10-14T09:59:22.491Z,6.77
2022-10-14T10:01:57.643Z,6.97
2022-10-14T10:04:47.691Z,7.50
2022-10-14T10:07:31.724Z,6.90
2022-10-14T10:10:19.517Z,7.27
2022-10-14T10:12:50.455Z,6.70
2022-10-14T10:15:21.807Z,7.47
2022-10-14T10:17:53.577Z,6.77
2022-10-14T10:20:33.595Z,7.67
2022-10-14T10:23:25.514Z,6.50
2022-10-14T10:26:14.956Z,7.37
2022-10-14T10:28:48.675Z,7.23
2022-10-14T10:32:03.308Z,6.50
2022-10-14T10:35:06.919Z,7.20
2022-10-14T10:38:12.673Z,6.07
2022-10-14T10:41:23.218Z,6.80
2022-10-14T10:44:37.141Z,6.70
2022-10-14T10:47:35.046Z,6.20
2022-10-14T10:50:30.449Z,6.73
2022-10-14T10:53:16.258Z,6.00
2022-10-14T10:55:54.134Z,6.03
2022-10-14T10:58:31.121Z,5.83
2022-10-14T11:01:42.990Z,6.13
2022-10-14T11:04:31.444Z,5.90
2022-10-14T11:07:41.365Z,6.17
2022-10-14T11:10:43.271Z,6.53
2022-10-14T11:13:27.136Z,5.13
2022-10-14T11:16:14.874Z,6.63
2022-10-14T11:19:12.301Z,6.10
2022-10-14T11:21:51.454Z,6.40
2022-10-14T11:24:43.308Z,5.80
2022-10-14T11:27:41.708Z,7.00
2022-10-14T11:30:18.041Z,6.73
2022-10-14T11:33:58.485Z,6.60
2022-10-14T11:36:40.283Z,5.43
2022-10-14T11:39:42.701Z,5.27
2022-10-14T11:42:52.530Z,4.73
2022-10-14T11:46:01.731Z,5.83
2022-10-14T11:48:39.992Z,4.80
2022-10-14T11:51:20.236Z,4.33
2022-10-14T11:54:28.755Z,3.70
2022-10-14T11:57:15.641Z,3.87
2022-10-14T12:00:11.754Z,4.03
2022-10-14T12:03:02.955Z,4.30
2022-10-14T12:05:46.036Z,3.93
2022-10-14T12:08:33.269Z,3.73
2022-10-14T12:11:15.714Z,3.50
2022-10-14T12:13:54.795Z,4.13
2022-10-14T12:16:25.827Z,4.90
2022-10-14T12:18:58.336Z,3.60
2022-10-14T12:21:34.706Z,4.07
2022-10-14T12:24:14.468Z,3.50
2022-10-14T12:26:58.128Z,3.20
2022-10-14T12:29:34.823Z,4.03
2022-10-14T12:32:05.714Z,3.57
2022-10-14T12:34:42.119Z,3.33
2022-10-14T12:37:28.801Z,3.23
2022-10-14T12:40:02.242Z,3.70
2022-10-14T12:43:11.823Z,2.63
2022-10-14T12:46:03.575Z,3.63
2022-10-14T12:48:36.458Z,3.30
2022-10-14T12:51:13.764Z,2.87
2022-10-14T12:53:58.102Z,3.10
2022-10-14T12:56:45.097Z,3.33
2022-10-14T12:59:42.439Z,3.30
2022-10-14T13:02:35.220Z,3.80
2022-10-14T13:05:22.667Z,3.20
2022-10-14T13:08:24.313Z,3.03
2022-10-14T13:10:55.165Z,2.67
2022-10-14T13:13:42.003Z,2.40
2022-10-14T13:16:24.588Z,2.13
2022-10-14T13:19:03.760Z,2.50
2022-10-14T13:21:34.614Z,2.73
2022-10-14T13:24:26.920Z,2.50
2022-10-14T13:27:04.653Z,1.90
2022-10-14T13:29:53.521Z,2.00
2022-10-14T13:32:55.683Z,2.47
2022-10-14T13:35:51.002Z,2.50
2022-10-14T13:38:24.008Z,3.80
2022-10-14T13:40:57.722Z,2.00
2022-10-14T13:43:38.883Z,2.43
2022-10-14T13:46:26.331Z,2.70
2022-10-14T13:49:03.007Z,2.00
2022-10-14T13:52:06.023Z,1.80
2022-10-14T13:54:37.035Z,1.87
2022-10-14T13:57:47.935Z,2.13
2022-10-14T14:00:40.709Z,2.13
2022-10-14T14:03:41.802Z,1.60
2022-10-14T14:06:17.451Z,1.57
2022-10-14T14:09:07.982Z,1.70
2022-10-14T14:11:39.004Z,2.10
2022-10-14T14:14:20.941Z,2.00
2022-10-14T14:17:00.827Z,1.60
2022-10-14T14:19:37.457Z,1.83
2022-10-14T14:22:27.366Z,1.80
2022-10-14T14:25:33.352Z,2.23
2022-10-14T14:28:07.962Z,1.53
2022-10-14T14:30:39.807Z,2.20
2022-10-14T14:33:19.063Z,2.10
2022-10-14T14:36:00.878Z,1.90
2022-10-14T14:38:37.632Z,2.03
2022-10-14T14:41:25.609Z,2.20
2022-10-14T14:46:58.632Z,3.13
2022-10-14T14:49:35.376Z,5.63
2022-10-14T14:52:07.377Z,2.90
2022-10-14T14:54:46.005Z,2.77
2022-10-14T14:57:22.158Z,2.30
2022-10-14T15:00:07.707Z,11.50
2022-10-14T15:02:38.646Z,4.77
2022-10-14T15:05:11.929Z,3.70
2022-10-14T15:07:43.968Z,2.80
2022-10-14T15:10:26.284Z,3.37
2022-10-14T15:13:02.475Z,2.50
2022-10-14T15:15:34.875Z,2.83
2022-10-14T15:18:28.148Z,2.47
2022-10-14T15:21:15.191Z,2.20
2022-10-14T15:23:49.069Z,2.47
2022-10-14T15:26:27.887Z,2.50
2022-10-14T15:32:01.517Z,3.50
2022-10-14T15:34:32.404Z,2.90
2022-10-14T15:37:03.327Z,3.30
2022-10-14T15:39:34.225Z,5.40
2022-10-14T15:42:13.009Z,3.80
2022-10-14T15:44:43.859Z,4.80
2022-10-14T15:47:20.774Z,3.80
2022-10-14T15:49:51.636Z,3.50
2022-10-14T15:52:26.022Z,10.07
2022-10-14T15:54:58.918Z,5.90
2022-10-14T15:57:30.570Z,8.57
2022-10-14T16:00:01.535Z,4.30
2022-10-14T16:02:33.494Z,4.40
2022-10-14T16:05:19.477Z,5.60
2022-10-14T16:07:51.171Z,4.90
2022-10-14T16:10:23.771Z,3.20
2022-10-14T16:12:54.681Z,2.90
2022-10-14T16:15:49.557Z,4.70
2022-10-14T16:18:23.250Z,3.70
2022-10-14T16:20:54.158Z,7.90
2022-10-14T16:23:28.380Z,3.20
2022-10-14T16:26:03.469Z,3.10
2022-10-14T16:28:34.352Z,3.27
2022-10-14T16:31:05.686Z,9.00
2022-10-14T16:33:38.305Z,5.50
2022-10-14T16:36:14.903Z,3.27
2022-10-14T16:38:45.813Z,3.87
2022-10-14T16:41:16.688Z,3.07
2022-10-14T16:43:47.856Z,3.37
2022-10-14T16:46:18.762Z,4.23
2022-10-14T16:48:49.733Z,4.57
2022-10-14T16:53:56.376Z,2.90
2022-10-14T16:56:45.782Z,4.50
2022-10-14T16:59:16.805Z,16.40
2022-10-14T17:01:49.148Z,9.90
2022-10-14T17:04:20.784Z,5.57
2022-10-14T17:06:51.831Z,6.53
2022-10-14T17:11:54.726Z,7.00
2022-10-14T17:14:25.918Z,9.90
2022-10-14T17:17:00.401Z,6.70
2022-10-14T17:19:31.354Z,3.87
2022-10-14T17:22:03.276Z,4.70
2022-10-14T17:24:34.215Z,5.20
2022-10-14T17:27:05.389Z,2.70
2022-10-14T17:29:36.351Z,2.50
2022-10-14T17:32:07.397Z,3.00
2022-10-14T17:34:38.479Z,1.73
2022-10-14T17:39:45.200Z,2.30
2022-10-14T17:42:16.175Z,3.00
2022-10-14T17:44:47.066Z,2.97
2022-10-14T17:47:18.191Z,2.67
2022-10-14T17:49:50.406Z,2.73
2022-10-14T17:52:21.326Z,3.10
2022-10-14T17:54:52.188Z,3.53
2022-10-14T17:57:23.268Z,3.27
2022-10-14T17:59:54.433Z,3.30
2022-10-14T18:02:25.452Z,3.37
2022-10-14T18:04:56.353Z,3.20
2022-10-14T18:07:27.979Z,4.50
2022-10-14T18:09:59.118Z,4.17
2022-10-14T18:12:30.159Z,4.10
2022-10-14T18:15:01.762Z,3.40
2022-10-14T18:17:32.690Z,3.23
2022-10-14T18:20:05.467Z,3.77
2022-10-14T18:22:36.467Z,3.30
2022-10-14T18:25:07.822Z,3.93
2022-10-14T18:27:38.861Z,3.90
2022-10-14T18:30:11.351Z,4.63
2022-10-14T18:32:42.273Z,4.10
2022-10-14T18:35:13.293Z,4.77
2022-10-14T18:37:44.177Z,4.83
2022-10-14T18:40:17.045Z,5.27
2022-10-14T18:42:47.939Z,5.27
2022-10-14T18:45:18.858Z,4.67
2022-10-14T18:47:49.848Z,5.10
2022-10-14T18:50:20.745Z,4.10
2022-10-14T18:52:51.651Z,4.30
2022-10-14T18:55:22.515Z,4.20
2022-10-14T18:57:53.403Z,4.00
2022-10-14T19:00:25.098Z,2.90
2022-10-14T19:02:55.970Z,3.20
2022-10-14T19:05:32.212Z,2.90
2022-10-14T19:08:04.415Z,3.30
2022-10-14T19:10:35.376Z,2.77
2022-10-14T19:13:06.319Z,3.00
2022-10-14T19:15:45.268Z,4.00
2022-10-14T19:18:18.658Z,3.10
2022-10-14T19:20:56.355Z,2.00
2022-10-14T19:23:27.496Z,2.17
2022-10-14T19:25:59.445Z,2.43
2022-10-14T19:28:30.383Z,2.47
2022-10-14T19:31:19.342Z,2.37
2022-10-14T19:33:50.800Z,2.20
2022-10-14T19:36:24.131Z,2.40
2022-10-14T19:38:59.515Z,2.10
2022-10-14T19:41:33.899Z,2.47
2022-10-14T19:44:05.334Z,1.90
2022-10-14T19:46:36.257Z,2.50
2022-10-14T19:49:07.225Z,2.37
2022-10-14T19:51:38.954Z,3.53
2022-10-14T19:54:12.026Z,2.60
2022-10-14T19:56:43.447Z,2.07
2022-10-14T19:59:14.893Z,1.70
2022-10-14T20:01:45.950Z,1.93
2022-10-14T20:04:16.897Z,1.70
2022-10-14T20:06:47.787Z,1.87
2022-10-14T20:09:18.619Z,1.83
2022-10-14T20:11:49.523Z,2.63
2022-10-14T20:14:20.405Z,1.90
2022-10-14T20:16:53.673Z,1.93
2022-10-14T20:19:26.836Z,2.20
2022-10-14T20:22:00.553Z,1.60
2022-10-14T20:24:31.465Z,2.10
2022-10-14T20:27:03.141Z,2.13
2022-10-14T20:29:36.797Z,2.17
2022-10-14T20:32:08.990Z,3.53
2022-10-14T20:34:40.000Z,2.97
2022-10-14T20:37:10.929Z,2.90
2022-10-14T20:39:41.810Z,2.97
2022-10-14T20:42:12.685Z,2.00
2022-10-14T20:44:43.611Z,2.10
2022-10-14T20:47:14.546Z,2.33
2022-10-14T20:49:45.420Z,2.07
2022-10-14T20:52:16.332Z,1.87
2022-10-14T20:54:47.203Z,1.90
2022-10-14T20:57:18.136Z,2.10
2022-10-14T20:59:49.011Z,2.00
2022-10-14T21:02:21.741Z,1.83
2022-10-14T21:04:53.149Z,1.80
2022-10-14T21:07:24.720Z,1.93
2022-10-14T21:09:55.981Z,1.70
2022-10-14T21:12:26.947Z,2.17
2022-10-14T21:14:57.862Z,1.97
2022-10-14T21:17:28.806Z,2.00
2022-10-14T21:19:59.700Z,1.83
2022-10-14T21:22:30.605Z,2.97
2022-10-14T21:25:01.490Z,2.50
2022-10-14T21:27:32.415Z,2.00
2022-10-14T21:30:04.103Z,2.67
2022-10-14T21:32:35.050Z,2.00
2022-10-14T21:35:06.975Z,2.23
2022-10-14T21:37:37.883Z,2.30
2022-10-14T21:40:09.735Z,2.37
2022-10-14T21:42:40.707Z,2.50
2022-10-14T21:45:11.577Z,2.13
2022-10-14T21:47:42.451Z,1.83
2022-10-14T21:50:13.358Z,1.60
2022-10-14T21:52:44.239Z,1.90
2022-10-14T21:55:15.243Z,1.70
2022-10-14T21:57:46.128Z,1.70
2022-10-14T22:00:17.321Z,2.10
2022-10-14T22:02:52.728Z,1.63
2022-10-14T22:05:23.599Z,1.83
2022-10-14T22:07:54.559Z,2.00
2022-10-14T22:10:44.929Z,2.30
2022-10-14T22:13:15.905Z,1.97
2022-10-14T22:15:47.069Z,1.90
2022-10-14T22:18:18.001Z,1.57
2022-10-14T22:20:51.480Z,1.93
2022-10-14T22:23:22.369Z,1.63
2022-10-14T22:25:53.263Z,1.30
2022-10-14T22:28:31.225Z,1.60
2022-10-14T22:31:08.326Z,1.60
2022-10-14T22:33:40.444Z,1.77
2022-10-14T22:36:34.145Z,1.50
2022-10-14T22:39:10.419Z,1.50
2022-10-14T22:41:41.361Z,1.43
2022-10-14T22:44:12.262Z,1.73
2022-10-14T22:46:43.158Z,1.70
2022-10-14T22:49:14.038Z,1.63
2022-10-14T22:51:44.959Z,1.60
2022-10-14T22:54:15.824Z,1.40
2022-10-14T22:56:46.732Z,1.67
2022-10-14T22:59:17.591Z,1.60
2022-10-14T23:01:48.485Z,1.93
2022-10-14T23:04:19.406Z,1.70
2022-10-14T23:06:51.531Z,1.67
2022-10-14T23:09:22.498Z,1.77
2022-10-14T23:11:53.450Z,1.60
2022-10-14T23:14:24.420Z,1.70
2022-10-14T23:16:55.305Z,1.93
2022-10-14T23:19:26.204Z,1.70
2022-10-14T23:21:57.182Z,1.73
2022-10-14T23:24:28.223Z,1.50
2022-10-14T23:26:59.149Z,1.80
2022-10-14T23:29:30.078Z,1.90
2022-10-14T23:32:02.173Z,1.20
2022-10-14T23:34:33.088Z,1.60
2022-10-14T23:37:03.994Z,1.57
2022-10-14T23:39:34.911Z,2.67
2022-10-14T23:42:05.907Z,1.20
2022-10-14T23:44:36.840Z,1.33
2022-10-14T23:47:08.096Z,1.23
2022-10-14T23:49:39.016Z,1.00
2022-10-14T23:52:09.959Z,1.30
2022-10-14T23:54:40.836Z,1.47
2022-10-14T23:57:11.744Z,1.00
2022-10-14T23:59:42.879Z,1.23
